createdAt,value
2022-09-03T00:01:54.785Z,4
2022-09-03T00:06:36.187Z,4
2022-09-03T00:11:17.450Z,4
2022-09-03T00:15:58.758Z,4
2022-09-03T00:20:39.962Z,4
2022-09-03T00:25:22.278Z,4
2022-09-03T00:30:04.586Z,4
2022-09-03T00:34:46.894Z,4
2022-09-03T00:39:29.104Z,4
2022-09-03T00:44:11.412Z,4
2022-09-03T00:48:53.721Z,4
2022-09-03T00:53:35.927Z,4
2022-09-03T00:58:18.234Z,4
2022-09-03T01:03:00.543Z,4
2022-09-03T01:07:42.852Z,4
2022-09-03T01:12:25.147Z,9
2022-09-03T01:17:07.388Z,4
2022-09-03T01:21:48.687Z,4
2022-09-03T01:26:30.993Z,9
2022-09-03T01:31:13.243Z,4
2022-09-03T01:35:55.519Z,4
2022-09-03T01:40:37.845Z,4
2022-09-03T01:45:20.031Z,4
2022-09-03T01:50:02.367Z,4
2022-09-03T01:54:43.642Z,4
2022-09-03T01:59:24.947Z,4
2022-09-03T02:04:06.256Z,4
2022-09-03T02:08:47.560Z,4
2022-09-03T02:13:29.868Z,4
2022-09-03T02:18:12.126Z,4
2022-09-03T02:22:54.393Z,4
2022-09-03T02:27:36.695Z,4
2022-09-03T02:32:18.908Z,9
2022-09-03T02:37:01.218Z,4
2022-09-03T02:41:43.523Z,4
2022-09-03T02:46:25.845Z,4
2022-09-03T02:51:08.043Z,4
2022-09-03T02:55:50.358Z,4
2022-09-03T03:00:32.656Z,9
2022-09-03T03:05:14.865Z,9
2022-09-03T03:09:56.172Z,4
2022-09-03T03:14:38.475Z,4
2022-09-03T03:19:20.790Z,4
2022-09-03T03:24:02.999Z,4
2022-09-03T03:28:45.308Z,9
2022-09-03T03:33:27.621Z,9
2022-09-03T03:38:09.881Z,9
2022-09-03T03:42:51.136Z,9
2022-09-03T03:47:32.465Z,9
2022-09-03T03:52:14.759Z,9
2022-09-03T03:56:57.061Z,9
2022-09-03T04:01:38.366Z,12
2022-09-03T04:06:19.685Z,15
2022-09-03T04:11:01.884Z,30
2022-09-03T04:15:44.199Z,37
2022-09-03T04:20:26.497Z,56
2022-09-03T04:25:08.805Z,120
2022-09-03T04:29:51.017Z,235
2022-09-03T04:34:32.328Z,420
2022-09-03T04:39:14.626Z,613
2022-09-03T04:43:56.952Z,861
2022-09-03T04:48:39.148Z,1149
2022-09-03T04:53:21.455Z,1358
2022-09-03T04:58:03.765Z,1582
2022-09-03T05:02:45.972Z,1789
2022-09-03T05:07:28.279Z,2201
2022-09-03T05:12:10.633Z,2439
2022-09-03T05:16:52.807Z,2637
2022-09-03T05:21:35.116Z,3224
2022-09-03T05:26:17.423Z,4218
2022-09-03T05:30:59.737Z,4537
2022-09-03T05:35:40.946Z,4878
2022-09-03T05:40:22.250Z,5112
2022-09-03T05:45:03.556Z,4923
2022-09-03T05:49:44.868Z,4597
2022-09-03T05:54:26.183Z,3978
2022-09-03T05:59:08.486Z,4243
2022-09-03T06:03:50.794Z,5044
2022-09-03T06:08:33.004Z,5440
2022-09-03T06:13:15.310Z,5815
2022-09-03T06:17:57.620Z,6855
2022-09-03T06:22:39.831Z,8041
2022-09-03T06:27:22.146Z,7840
2022-09-03T06:32:04.449Z,7473
2022-09-03T06:36:46.769Z,8055
2022-09-03T06:46:11.276Z,6398
2022-09-03T06:50:53.582Z,6176
2022-09-03T06:55:34.894Z,6881
2022-09-03T07:00:17.098Z,9981
2022-09-03T07:04:59.414Z,10812
2022-09-03T07:09:41.757Z,12423
2022-09-03T07:14:24.034Z,9832
2022-09-03T07:19:06.257Z,8587
2022-09-03T07:23:48.547Z,8866
2022-09-03T07:28:30.808Z,8888
2022-09-03T07:33:12.062Z,9750
2022-09-03T07:37:53.373Z,10856
2022-09-03T07:42:34.680Z,12380
2022-09-03T07:47:15.988Z,23929
2022-09-03T07:51:58.305Z,39897
2022-09-03T07:56:40.605Z,21610
2022-09-03T08:01:22.819Z,20686
2022-09-03T08:06:05.126Z,24067
2022-09-03T08:10:47.437Z,21440
2022-09-03T08:15:29.684Z,17926
2022-09-03T08:20:11.976Z,20877
2022-09-03T08:24:54.271Z,23247
2022-09-03T08:29:36.472Z,21399
2022-09-03T08:34:18.782Z,24163
2022-09-03T08:39:01.123Z,25545
2022-09-03T08:43:43.427Z,26128
2022-09-03T08:48:24.606Z,24609
2022-09-03T08:53:06.921Z,23737
2022-09-03T08:57:49.225Z,23758
2022-09-03T09:02:31.435Z,24948
2022-09-03T09:07:13.784Z,22537
2022-09-03T09:11:56.058Z,20515
2022-09-03T09:16:38.363Z,19603
2022-09-03T09:21:19.668Z,22277
2022-09-03T09:26:01.889Z,23607
2022-09-03T09:30:43.188Z,25645
2022-09-03T09:35:25.498Z,33368
2022-09-03T09:40:07.803Z,28784
2022-09-03T09:44:50.038Z,31203
2022-09-03T09:49:32.329Z,30352
2022-09-03T09:54:14.630Z,25225
2022-09-03T09:58:56.844Z,18626
2022-09-03T10:03:39.155Z,55125
2022-09-03T10:08:21.461Z,49784
2022-09-03T10:13:03.671Z,49499
2022-09-03T10:17:45.992Z,42402
2022-09-03T10:22:28.290Z,17163
2022-09-03T10:27:10.603Z,43105
2022-09-03T10:31:51.854Z,33004
2022-09-03T10:36:34.121Z,34593
2022-09-03T10:41:16.427Z,51124
2022-09-03T10:45:58.761Z,23443
2022-09-03T10:50:40.946Z,24620
2022-09-03T10:55:23.261Z,28180
2022-09-03T11:00:04.565Z,33610
2022-09-03T11:04:45.874Z,41533
2022-09-03T11:09:27.206Z,36468
2022-09-03T11:14:09.487Z,37390
2022-09-03T11:18:50.717Z,38478
2022-09-03T11:23:33.035Z,57144
2022-09-03T11:28:15.326Z,50850
2022-09-03T11:32:57.538Z,52137
2022-09-03T11:37:39.844Z,58349
2022-09-03T11:42:22.150Z,41176
2022-09-03T11:47:04.460Z,44481
2022-09-03T11:51:46.687Z,38938
2022-09-03T11:56:28.986Z,1442
2022-09-03T12:01:11.289Z,45545
2022-09-03T12:05:53.496Z,9987
2022-09-03T12:10:35.836Z,54147
2022-09-03T12:15:18.115Z,60701
2022-09-03T12:20:00.423Z,51516
2022-09-03T12:24:41.635Z,15440
2022-09-03T12:29:23.959Z,55701
2022-09-03T12:34:06.293Z,10662
2022-09-03T12:38:48.563Z,29330
2022-09-03T12:43:30.775Z,61084
2022-09-03T12:48:12.082Z,45250
2022-09-03T12:52:53.395Z,38420
2022-09-03T12:57:35.744Z,27048
2022-09-03T13:02:18.051Z,24455
2022-09-03T13:07:00.244Z,23040
2022-09-03T13:11:42.545Z,17039
2022-09-03T13:16:24.837Z,11611
2022-09-03T13:21:07.043Z,7344
2022-09-03T13:25:49.354Z,6044
2022-09-03T13:30:31.663Z,7318
2022-09-03T13:35:13.877Z,7813
2022-09-03T13:39:56.191Z,8145
2022-09-03T13:44:38.497Z,9316
2022-09-03T13:49:20.804Z,10344
2022-09-03T13:54:02.012Z,13523
2022-09-03T13:58:44.321Z,16607
2022-09-03T14:03:26.629Z,16988
2022-09-03T14:08:08.854Z,11620
2022-09-03T14:12:51.152Z,9860
2022-09-03T14:17:33.466Z,13603
2022-09-03T14:22:15.773Z,16541
2022-09-03T14:26:57.079Z,13180
2022-09-03T14:31:38.290Z,15559
2022-09-03T14:36:19.624Z,15871
2022-09-03T14:41:00.921Z,12743
2022-09-03T14:45:43.214Z,7396
2022-09-03T14:50:25.521Z,7291
2022-09-03T14:55:07.750Z,6105
2022-09-03T14:59:50.043Z,8335
2022-09-03T15:04:32.349Z,12451
2022-09-03T15:09:14.706Z,11647
2022-09-03T15:13:56.876Z,11425
2022-09-03T15:18:39.180Z,11732
2022-09-03T15:23:21.489Z,11981
2022-09-03T15:28:03.705Z,11003
2022-09-03T15:32:46.006Z,10278
2022-09-03T15:37:28.323Z,8540
2022-09-03T15:42:09.627Z,6628
2022-09-03T15:46:51.837Z,5417
2022-09-03T15:51:34.177Z,6335
2022-09-03T15:56:16.479Z,7108
2022-09-03T16:00:58.675Z,7959
2022-09-03T16:05:40.972Z,9758
2022-09-03T16:10:23.280Z,9477
2022-09-03T16:15:04.598Z,6043
2022-09-03T16:19:45.894Z,3048
2022-09-03T16:24:27.237Z,3565
2022-09-03T16:29:08.525Z,3922
2022-09-03T16:33:49.820Z,2684
2022-09-03T16:38:31.125Z,3120
2022-09-03T16:43:13.329Z,2183
2022-09-03T16:47:55.639Z,1165
2022-09-03T16:52:37.949Z,656
2022-09-03T16:57:20.203Z,456
2022-09-03T17:02:02.498Z,448
2022-09-03T17:06:44.783Z,376
2022-09-03T17:11:26.985Z,343
2022-09-03T17:16:09.378Z,294
2022-09-03T17:20:51.612Z,645
2022-09-03T17:25:33.943Z,650
2022-09-03T17:30:16.126Z,375
2022-09-03T17:34:58.431Z,168
2022-09-03T17:39:39.739Z,175
2022-09-03T17:44:21.945Z,135
2022-09-03T17:49:04.257Z,92
2022-09-03T17:53:46.564Z,77
2022-09-03T17:58:28.874Z,62
2022-09-03T18:03:11.100Z,47
2022-09-03T18:07:53.395Z,23
2022-09-03T18:12:34.700Z,20
2022-09-03T18:17:16.013Z,9
2022-09-03T18:21:57.322Z,9
2022-09-03T18:26:38.621Z,9
2022-09-03T18:31:20.838Z,9
2022-09-03T18:36:03.157Z,9
2022-09-03T18:40:45.467Z,9
2022-09-03T18:45:27.761Z,9
2022-09-03T18:50:09.982Z,9
2022-09-03T18:54:52.284Z,9
2022-09-03T18:59:34.587Z,9
2022-09-03T19:04:16.824Z,9
2022-09-03T19:08:59.135Z,9
2022-09-03T19:13:41.415Z,9
2022-09-03T19:18:23.623Z,9
2022-09-03T19:23:05.936Z,9
2022-09-03T19:27:47.237Z,9
2022-09-03T19:32:29.571Z,9
2022-09-03T19:37:11.770Z,9
2022-09-03T19:41:54.070Z,9
2022-09-03T19:46:36.395Z,9
2022-09-03T19:51:18.581Z,9
2022-09-03T19:56:00.895Z,9
2022-09-03T20:00:42.265Z,9
2022-09-03T20:05:23.512Z,9
2022-09-03T20:10:04.848Z,9
2022-09-03T20:14:46.127Z,9
2022-09-03T20:19:27.453Z,9
2022-09-03T20:24:08.739Z,9
2022-09-03T20:28:51.090Z,9
2022-09-03T20:33:33.255Z,9
2022-09-03T20:38:15.567Z,9
2022-09-03T20:42:57.876Z,9
2022-09-03T20:47:40.080Z,9
2022-09-03T20:52:22.392Z,9
2022-09-03T20:57:04.704Z,9
2022-09-03T21:01:47.010Z,9
2022-09-03T21:06:29.219Z,9
2022-09-03T21:11:11.536Z,9
2022-09-03T21:15:53.835Z,9
2022-09-03T21:20:36.044Z,9
2022-09-03T21:25:17.350Z,9
2022-09-03T21:29:59.664Z,9
2022-09-03T21:34:41.970Z,9
2022-09-03T21:39:24.181Z,9
2022-09-03T21:44:06.533Z,9
2022-09-03T21:48:48.809Z,9
2022-09-03T21:53:31.019Z,9
2022-09-03T21:58:12.370Z,9
2022-09-03T22:02:53.620Z,9
2022-09-03T22:07:34.929Z,9
2022-09-03T22:12:16.236Z,9
2022-09-03T22:16:57.573Z,9
2022-09-03T22:21:38.851Z,9
2022-09-03T22:26:21.177Z,9
2022-09-03T22:31:03.502Z,9
2022-09-03T22:35:45.683Z,9
2022-09-03T22:40:28.009Z,9
2022-09-03T22:45:10.299Z,9
2022-09-03T22:49:52.504Z,9
2022-09-03T22:54:34.902Z,9
2022-09-03T22:59:17.126Z,9
2022-09-03T23:03:59.325Z,9
2022-09-03T23:08:41.643Z,9
2022-09-03T23:13:23.960Z,9
2022-09-03T23:18:06.271Z,9
2022-09-03T23:22:47.465Z,9
2022-09-03T23:27:29.774Z,9
2022-09-03T23:32:12.077Z,9
2022-09-03T23:36:54.391Z,9
2022-09-03T23:41:36.603Z,9
2022-09-03T23:46:18.914Z,9
2022-09-03T23:51:01.237Z,9
2022-09-03T23:55:43.421Z,9
